Time,TemperatureF,DewpointF,PressureIn,WindDirection,WindDirectionDegrees,WindSpeedMPH,WindSpeedGustMPH,Humidity,HourlyPrecipIn,Conditions,Clouds,dailyrainin,SoftwareType,DateUTC
2013-02-03 00:22:00,41.0,29.0,30.13,North,-999,0.0,0.0,61,0.00,,,-99.99,,2013-02-03 08:22:00,
2013-02-03 00:32:00,41.0,29.0,30.13,North,-999,0.0,0.0,61,0.00,,,-99.99,,2013-02-03 08:32:00,
2013-02-03 00:41:00,41.0,29.0,30.13,North,-999,0.0,0.0,61,0.00,,,-99.99,,2013-02-03 08:41:00,
2013-02-03 01:21:00,38.0,34.0,30.09,North,-999,0.0,0.0,86,0.03,,,-99.99,,2013-02-03 09:21:00,
2013-02-03 01:31:00,38.0,34.0,30.09,North,-999,0.0,0.0,86,0.03,,,-99.99,,2013-02-03 09:31:00,
2013-02-03 01:41:00,38.0,34.0,30.09,North,-999,0.0,0.0,86,0.03,,,-99.99,,2013-02-03 09:41:00,
2013-02-03 02:21:00,36.0,33.0,30.07,North,-999,0.0,0.0,90,0.03,,,-99.99,,2013-02-03 10:21:00,
2013-02-03 02:31:00,36.0,33.0,30.07,North,-999,0.0,0.0,90,0.03,,,-99.99,,2013-02-03 10:31:00,
2013-02-03 02:41:00,36.0,33.0,30.07,North,-999,0.0,0.0,90,0.03,,,-99.99,,2013-02-03 10:41:00,
2013-02-03 03:22:00,35.0,33.0,30.04,North,-999,0.0,0.0,91,0.06,,,-99.99,,2013-02-03 11:22:00,
2013-02-03 03:31:00,35.0,33.0,30.04,North,-999,0.0,0.0,91,0.06,,,-99.99,,2013-02-03 11:31:00,
2013-02-03 03:41:00,35.0,33.0,30.04,North,-999,0.0,0.0,91,0.06,,,-99.99,,2013-02-03 11:41:00,
2013-02-03 04:22:00,36.0,34.0,30.01,North,0,0.0,2.0,94,0.04,,,-99.99,,2013-02-03 12:22:00,
2013-02-03 04:32:00,36.0,34.0,30.01,North,0,0.0,2.0,94,0.04,,,-99.99,,2013-02-03 12:32:00,
2013-02-03 04:42:00,36.0,34.0,30.01,North,0,0.0,2.0,94,0.04,,,-99.99,,2013-02-03 12:42:00,
2013-02-03 05:21:00,38.0,37.0,30.02,SW,220,1.0,3.0,95,0.02,,,-99.99,,2013-02-03 13:21:00,
2013-02-03 05:32:00,38.0,37.0,30.02,SW,220,1.0,3.0,95,0.02,,,-99.99,,2013-02-03 13:32:00,
2013-02-03 05:42:00,38.0,37.0,30.02,SW,220,1.0,3.0,95,0.02,,,-99.99,,2013-02-03 13:42:00,
2013-02-03 06:21:00,37.0,36.0,30.01,North,-999,0.0,0.0,95,0.00,,,-99.99,,2013-02-03 14:21:00,
2013-02-03 06:32:00,37.0,36.0,30.01,North,-999,0.0,0.0,95,0.00,,,-99.99,,2013-02-03 14:32:00,
2013-02-03 06:42:00,37.0,36.0,30.01,North,-999,0.0,0.0,95,0.00,,,-99.99,,2013-02-03 14:42:00,
2013-02-03 07:22:00,37.0,36.0,30.02,North,0,0.0,1.0,96,0.00,,,-99.99,,2013-02-03 15:22:00,
2013-02-03 07:32:00,37.0,36.0,30.02,North,0,0.0,1.0,96,0.00,,,-99.99,,2013-02-03 15:32:00,
2013-02-03 07:41:00,37.0,36.0,30.02,North,0,0.0,1.0,96,0.00,,,-99.99,,2013-02-03 15:41:00,
2013-02-03 08:22:00,38.0,37.0,30.04,North,-999,0.0,0.0,96,0.00,,,-99.99,,2013-02-03 16:22:00,
2013-02-03 08:32:00,38.0,37.0,30.04,North,-999,0.0,0.0,96,0.00,,,-99.99,,2013-02-03 16:32:00,
2013-02-03 08:41:00,38.0,37.0,30.04,North,-999,0.0,0.0,96,0.00,,,-99.99,,2013-02-03 16:41:00,
2013-02-03 09:21:00,38.0,37.0,30.04,North,0,0.0,2.0,95,0.00,,,-99.99,,2013-02-03 17:21:00,
2013-02-03 09:31:00,38.0,37.0,30.04,North,0,0.0,2.0,95,0.00,,,-99.99,,2013-02-03 17:31:00,
2013-02-03 09:42:00,38.0,37.0,30.04,North,0,0.0,2.0,95,0.00,,,-99.99,,2013-02-03 17:42:00,
2013-02-03 10:23:00,42.0,37.0,30.04,North,0,0.0,3.0,81,0.00,,,-99.99,,2013-02-03 18:23:00,
2013-02-03 10:32:00,42.0,37.0,30.04,North,0,0.0,3.0,81,0.00,,,-99.99,,2013-02-03 18:32:00,
2013-02-03 10:41:00,42.0,37.0,30.04,North,0,0.0,3.0,81,0.00,,,-99.99,,2013-02-03 18:41:00,
2013-02-03 11:22:00,48.0,38.0,30.03,North,0,0.0,1.0,68,0.00,,,-99.99,,2013-02-03 19:22:00,
2013-02-03 11:32:00,48.0,38.0,30.03,North,0,0.0,1.0,68,0.00,,,-99.99,,2013-02-03 19:32:00,
2013-02-03 11:41:00,48.0,38.0,30.03,North,0,0.0,1.0,68,0.00,,,-99.99,,2013-02-03 19:41:00,
2013-02-03 12:21:00,44.0,37.0,30.01,ENE,60,4.0,7.0,76,0.00,,,-99.99,,2013-02-03 20:21:00,
2013-02-03 12:32:00,44.0,37.0,30.01,ENE,60,4.0,7.0,76,0.00,,,-99.99,,2013-02-03 20:32:00,
2013-02-03 12:42:00,44.0,37.0,30.01,ENE,60,4.0,7.0,76,0.00,,,-99.99,,2013-02-03 20:42:00,
2013-02-03 13:21:00,44.0,32.0,29.99,NE,40,4.0,7.0,63,0.00,,,-99.99,,2013-02-03 21:21:00,
2013-02-03 13:32:00,44.0,32.0,29.99,NE,40,4.0,7.0,63,0.00,,,-99.99,,2013-02-03 21:32:00,
2013-02-03 13:42:00,44.0,32.0,29.99,NE,40,4.0,7.0,63,0.00,,,-99.99,,2013-02-03 21:42:00,
2013-02-03 14:21:00,44.0,32.0,29.99,NNE,30,5.0,6.0,62,0.00,,,-99.99,,2013-02-03 22:21:00,
2013-02-03 14:32:00,44.0,32.0,29.99,NNE,30,5.0,6.0,62,0.00,,,-99.99,,2013-02-03 22:32:00,
2013-02-03 14:41:00,44.0,32.0,29.99,NNE,30,5.0,6.0,62,0.00,,,-99.99,,2013-02-03 22:41:00,
2013-02-03 15:22:00,43.0,29.0,30.01,North,350,2.0,6.0,57,0.00,,,-99.99,,2013-02-03 23:22:00,
2013-02-03 15:32:00,43.0,29.0,30.01,North,350,2.0,6.0,57,0.00,,,-99.99,,2013-02-03 23:32:00,
2013-02-03 15:41:00,43.0,29.0,30.01,North,350,2.0,6.0,57,0.00,,,-99.99,,2013-02-03 23:41:00,
2013-02-03 16:22:00,43.0,28.0,30.02,NW,320,5.0,7.0,54,0.00,,,-99.99,,2013-02-04 00:22:00,
2013-02-03 16:31:00,43.0,28.0,30.02,NW,320,5.0,7.0,54,0.00,,,-99.99,,2013-02-04 00:31:00,
2013-02-03 16:41:00,43.0,28.0,30.02,NW,320,5.0,7.0,54,0.00,,,-99.99,,2013-02-04 00:41:00,
2013-02-03 17:21:00,41.0,28.0,30.02,ENE,70,2.0,3.0,59,0.00,,,-99.99,,2013-02-04 01:21:00,
2013-02-03 17:31:00,41.0,28.0,30.02,ENE,70,2.0,3.0,59,0.00,,,-99.99,,2013-02-04 01:31:00,
2013-02-03 17:41:00,41.0,28.0,30.02,ENE,70,2.0,3.0,59,0.00,,,-99.99,,2013-02-04 01:41:00,
2013-02-03 18:21:00,36.0,25.0,30.04,North,-999,0.0,0.0,65,0.00,,,-99.99,,2013-02-04 02:21:00,
2013-02-03 18:31:00,36.0,25.0,30.04,North,-999,0.0,0.0,65,0.00,,,-99.99,,2013-02-04 02:31:00,
2013-02-03 18:41:00,36.0,25.0,30.04,North,-999,0.0,0.0,65,0.00,,,-99.99,,2013-02-04 02:41:00,
2013-02-03 19:21:00,37.0,24.0,30.05,North,0,0.0,1.0,59,0.00,,,-99.99,,2013-02-04 03:21:00,
2013-02-03 19:32:00,37.0,24.0,30.05,North,0,0.0,1.0,59,0.00,,,-99.99,,2013-02-04 03:32:00,
2013-02-03 19:41:00,37.0,24.0,30.05,North,0,0.0,1.0,59,0.00,,,-99.99,,2013-02-04 03:41:00,
2013-02-03 20:21:00,36.0,22.0,30.07,North,0,0.0,1.0,56,0.00,,,-99.99,,2013-02-04 04:21:00,
2013-02-03 20:31:00,36.0,22.0,30.07,North,0,0.0,1.0,56,0.00,,,-99.99,,2013-02-04 04:31:00,
2013-02-03 20:41:00,36.0,22.0,30.07,North,0,0.0,1.0,56,0.00,,,-99.99,,2013-02-04 04:41:00,
2013-02-03 21:22:00,36.0,24.0,30.08,North,0,0.0,2.0,61,0.00,,,-99.99,,2013-02-04 05:22:00,
2013-02-03 21:33:00,36.0,24.0,30.08,North,0,0.0,2.0,61,0.00,,,-99.99,,2013-02-04 05:33:00,
2013-02-03 21:42:00,36.0,24.0,30.08,North,0,0.0,2.0,61,0.00,,,-99.99,,2013-02-04 05:42:00,
2013-02-03 22:21:00,35.0,25.0,30.08,North,0,0.0,1.0,66,0.00,,,-99.99,,2013-02-04 06:21:00,
2013-02-03 22:31:00,35.0,25.0,30.08,North,0,0.0,1.0,66,0.00,,,-99.99,,2013-02-04 06:31:00,
2013-02-03 22:41:00,35.0,25.0,30.08,North,0,0.0,1.0,66,0.00,,,-99.99,,2013-02-04 06:41:00,
2013-02-03 23:21:00,35.0,25.0,30.08,North,0,0.0,1.0,66,0.00,,,-99.99,,2013-02-04 07:21:00,
2013-02-03 23:31:00,35.0,25.0,30.08,North,0,0.0,1.0,66,0.00,,,-99.99,,2013-02-04 07:31:00,